sensor_id;sensor_type;location;lat;lon;timestamp;temperature;humidity
12268;DHT22;6196;48.398;11.736;2023-05-23T00:01:39;16.50;99.90
12268;DHT22;6196;48.398;11.736;2023-05-23T00:04:06;16.40;99.90
12268;DHT22;6196;48.398;11.736;2023-05-23T00:06:34;16.50;99.90
12268;DHT22;6196;48.398;11.736;2023-05-23T00:09:01;16.50;99.90
12268;DHT22;6196;48.398;11.736;2023-05-23T00:11:28;16.50;99.90
12268;DHT22;6196;48.398;11.736;2023-05-23T00:13:56;16.50;99.90
12268;DHT22;6196;48.398;11.736;2023-05-23T00:16:26;16.40;99.90
12268;DHT22;6196;48.398;11.736;2023-05-23T00:18:53;16.30;99.90
12268;DHT22;6196;48.398;11.736;2023-05-23T00:21:23;16.30;99.90
12268;DHT22;6196;48.398;11.736;2023-05-23T00:23:50;16.30;99.90
12268;DHT22;6196;48.398;11.736;2023-05-23T00:26:16;16.30;99.90
12268;DHT22;6196;48.398;11.736;2023-05-23T00:28:43;16.30;99.90
12268;DHT22;6196;48.398;11.736;2023-05-23T00:31:10;16.30;99.90
12268;DHT22;6196;48.398;11.736;2023-05-23T00:33:37;16.30;99.90
12268;DHT22;6196;48.398;11.736;2023-05-23T00:36:04;16.20;99.90
12268;DHT22;6196;48.398;11.736;2023-05-23T00:38:31;16.20;99.90
12268;DHT22;6196;48.398;11.736;2023-05-23T00:40:58;16.20;99.90
12268;DHT22;6196;48.398;11.736;2023-05-23T00:43:26;16.30;99.90
12268;DHT22;6196;48.398;11.736;2023-05-23T00:45:53;16.30;99.90
12268;DHT22;6196;48.398;11.736;2023-05-23T00:48:20;16.40;99.90
12268;DHT22;6196;48.398;11.736;2023-05-23T00:50:47;16.50;99.90
12268;DHT22;6196;48.398;11.736;2023-05-23T00:53:14;16.50;99.90
12268;DHT22;6196;48.398;11.736;2023-05-23T00:55:43;16.50;99.90
12268;DHT22;6196;48.398;11.736;2023-05-23T00:58:10;16.40;99.90
12268;DHT22;6196;48.398;11.736;2023-05-23T01:00:38;16.40;99.90
12268;DHT22;6196;48.398;11.736;2023-05-23T01:03:05;16.40;99.90
12268;DHT22;6196;48.398;11.736;2023-05-23T01:05:32;16.50;99.90
12268;DHT22;6196;48.398;11.736;2023-05-23T01:07:59;16.40;99.90
12268;DHT22;6196;48.398;11.736;2023-05-23T01:10:30;16.50;99.90
12268;DHT22;6196;48.398;11.736;2023-05-23T01:13:04;16.50;99.90
12268;DHT22;6196;48.398;11.736;2023-05-23T01:21:17;16.50;99.90
12268;DHT22;6196;48.398;11.736;2023-05-23T01:27:24;16.50;99.90
12268;DHT22;6196;48.398;11.736;2023-05-23T01:30:07;16.50;99.90
12268;DHT22;6196;48.398;11.736;2023-05-23T01:32:36;16.50;99.90
12268;DHT22;6196;48.398;11.736;2023-05-23T01:35:04;16.50;99.90
12268;DHT22;6196;48.398;11.736;2023-05-23T01:37:32;16.50;99.90
12268;DHT22;6196;48.398;11.736;2023-05-23T01:39:59;16.40;99.90
12268;DHT22;6196;48.398;11.736;2023-05-23T01:42:28;16.40;99.90
12268;DHT22;6196;48.398;11.736;2023-05-23T01:44:56;16.40;99.90
12268;DHT22;6196;48.398;11.736;2023-05-23T01:47:25;16.40;99.90
12268;DHT22;6196;48.398;11.736;2023-05-23T01:49:53;16.30;99.90
12268;DHT22;6196;48.398;11.736;2023-05-23T01:52:22;16.40;99.90
12268;DHT22;6196;48.398;11.736;2023-05-23T01:54:50;16.40;99.90
12268;DHT22;6196;48.398;11.736;2023-05-23T01:57:18;16.40;99.90
12268;DHT22;6196;48.398;11.736;2023-05-23T01:59:45;16.40;99.90
12268;DHT22;6196;48.398;11.736;2023-05-23T02:02:12;16.40;99.90
12268;DHT22;6196;48.398;11.736;2023-05-23T02:04:39;16.50;99.90
12268;DHT22;6196;48.398;11.736;2023-05-23T02:07:06;16.50;99.90
12268;DHT22;6196;48.398;11.736;2023-05-23T02:09:33;16.60;99.90
12268;DHT22;6196;48.398;11.736;2023-05-23T02:12:00;16.60;99.90
12268;DHT22;6196;48.398;11.736;2023-05-23T02:14:27;16.60;99.90
12268;DHT22;6196;48.398;11.736;2023-05-23T02:16:54;16.60;99.90
12268;DHT22;6196;48.398;11.736;2023-05-23T02:19:20;16.60;99.90
12268;DHT22;6196;48.398;11.736;2023-05-23T02:21:47;16.60;99.90
12268;DHT22;6196;48.398;11.736;2023-05-23T02:24:14;16.70;99.90
12268;DHT22;6196;48.398;11.736;2023-05-23T02:26:41;16.60;99.90
12268;DHT22;6196;48.398;11.736;2023-05-23T02:29:08;16.50;99.90
12268;DHT22;6196;48.398;11.736;2023-05-23T02:31:35;16.60;99.90
12268;DHT22;6196;48.398;11.736;2023-05-23T02:34:02;16.60;99.90
12268;DHT22;6196;48.398;11.736;2023-05-23T02:36:29;16.50;99.90
12268;DHT22;6196;48.398;11.736;2023-05-23T02:38:58;16.50;99.90
12268;DHT22;6196;48.398;11.736;2023-05-23T02:41:25;16.50;99.90
12268;DHT22;6196;48.398;11.736;2023-05-23T02:43:52;16.40;99.90
12268;DHT22;6196;48.398;11.736;2023-05-23T02:46:19;16.40;99.90
12268;DHT22;6196;48.398;11.736;2023-05-23T02:48:46;16.30;99.90
12268;DHT22;6196;48.398;11.736;2023-05-23T02:51:13;16.30;99.90
12268;DHT22;6196;48.398;11.736;2023-05-23T02:53:40;16.20;99.90
12268;DHT22;6196;48.398;11.736;2023-05-23T02:56:07;16.10;99.90
12268;DHT22;6196;48.398;11.736;2023-05-23T02:58:35;16.00;99.90
12268;DHT22;6196;48.398;11.736;2023-05-23T03:01:02;16.00;99.90
12268;DHT22;6196;48.398;11.736;2023-05-23T03:03:32;15.90;99.90
12268;DHT22;6196;48.398;11.736;2023-05-23T03:06:01;15.70;99.90
12268;DHT22;6196;48.398;11.736;2023-05-23T03:08:30;15.80;99.90
12268;DHT22;6196;48.398;11.736;2023-05-23T03:10:57;15.80;99.90
12268;DHT22;6196;48.398;11.736;2023-05-23T03:13:24;15.70;99.90
12268;DHT22;6196;48.398;11.736;2023-05-23T03:15:51;15.60;99.90
12268;DHT22;6196;48.398;11.736;2023-05-23T03:18:18;15.60;99.90
12268;DHT22;6196;48.398;11.736;2023-05-23T03:20:44;15.50;99.90
12268;DHT22;6196;48.398;11.736;2023-05-23T03:23:11;15.50;99.90
12268;DHT22;6196;48.398;11.736;2023-05-23T03:25:38;15.40;99.90
12268;DHT22;6196;48.398;11.736;2023-05-23T03:28:05;15.40;99.90
12268;DHT22;6196;48.398;11.736;2023-05-23T03:30:32;15.40;99.90
12268;DHT22;6196;48.398;11.736;2023-05-23T03:32:59;15.30;99.90
12268;DHT22;6196;48.398;11.736;2023-05-23T03:35:27;15.20;99.90
12268;DHT22;6196;48.398;11.736;2023-05-23T03:37:54;15.20;99.90
12268;DHT22;6196;48.398;11.736;2023-05-23T03:40:21;15.10;99.90
12268;DHT22;6196;48.398;11.736;2023-05-23T03:42:48;15.10;99.90
12268;DHT22;6196;48.398;11.736;2023-05-23T03:45:27;15.10;99.90
12268;DHT22;6196;48.398;11.736;2023-05-23T03:47:54;15.00;99.90
12268;DHT22;6196;48.398;11.736;2023-05-23T03:50:20;15.00;99.90
12268;DHT22;6196;48.398;11.736;2023-05-23T03:52:47;15.10;99.90
12268;DHT22;6196;48.398;11.736;2023-05-23T03:55:14;15.10;99.90
12268;DHT22;6196;48.398;11.736;2023-05-23T03:57:41;15.10;99.90
12268;DHT22;6196;48.398;11.736;2023-05-23T04:00:08;15.00;99.90
12268;DHT22;6196;48.398;11.736;2023-05-23T04:02:38;15.10;99.90
12268;DHT22;6196;48.398;11.736;2023-05-23T04:05:08;15.10;99.90
12268;DHT22;6196;48.398;11.736;2023-05-23T04:07:35;14.90;99.90
12268;DHT22;6196;48.398;11.736;2023-05-23T04:10:02;14.90;99.90
12268;DHT22;6196;48.398;11.736;2023-05-23T04:12:30;14.80;99.90
12268;DHT22;6196;48.398;11.736;2023-05-23T04:14:57;14.90;99.90
12268;DHT22;6196;48.398;11.736;2023-05-23T04:17:24;15.00;99.90
12268;DHT22;6196;48.398;11.736;2023-05-23T04:19:51;15.00;99.90
12268;DHT22;6196;48.398;11.736;2023-05-23T04:22:18;15.10;99.90
12268;DHT22;6196;48.398;11.736;2023-05-23T04:24:45;15.20;99.90
12268;DHT22;6196;48.398;11.736;2023-05-23T04:27:12;15.20;99.90
12268;DHT22;6196;48.398;11.736;2023-05-23T04:29:39;15.30;99.90
12268;DHT22;6196;48.398;11.736;2023-05-23T04:32:06;15.30;99.90
12268;DHT22;6196;48.398;11.736;2023-05-23T04:34:33;15.40;99.90
12268;DHT22;6196;48.398;11.736;2023-05-23T04:37:01;15.50;99.90
12268;DHT22;6196;48.398;11.736;2023-05-23T04:39:28;15.70;99.90
12268;DHT22;6196;48.398;11.736;2023-05-23T04:41:55;15.70;99.90
12268;DHT22;6196;48.398;11.736;2023-05-23T04:44:23;15.80;99.90
12268;DHT22;6196;48.398;11.736;2023-05-23T04:46:50;15.60;99.90
12268;DHT22;6196;48.398;11.736;2023-05-23T04:49:17;15.70;99.90
12268;DHT22;6196;48.398;11.736;2023-05-23T04:51:46;15.80;99.90
12268;DHT22;6196;48.398;11.736;2023-05-23T04:54:14;15.80;99.90
12268;DHT22;6196;48.398;11.736;2023-05-23T04:56:41;15.90;99.90
12268;DHT22;6196;48.398;11.736;2023-05-23T04:59:08;15.90;99.90
12268;DHT22;6196;48.398;11.736;2023-05-23T05:01:37;16.00;99.90
12268;DHT22;6196;48.398;11.736;2023-05-23T05:04:06;16.10;99.90
12268;DHT22;6196;48.398;11.736;2023-05-23T05:06:34;16.10;99.90
12268;DHT22;6196;48.398;11.736;2023-05-23T05:09:02;16.00;99.90
12268;DHT22;6196;48.398;11.736;2023-05-23T05:11:28;16.10;99.90
12268;DHT22;6196;48.398;11.736;2023-05-23T05:13:56;16.30;99.90
12268;DHT22;6196;48.398;11.736;2023-05-23T05:16:22;16.40;99.90
12268;DHT22;6196;48.398;11.736;2023-05-23T05:18:49;16.60;99.90
12268;DHT22;6196;48.398;11.736;2023-05-23T05:21:17;16.60;99.90
12268;DHT22;6196;48.398;11.736;2023-05-23T05:23:43;16.70;99.90
12268;DHT22;6196;48.398;11.736;2023-05-23T05:26:11;16.80;99.90
12268;DHT22;6196;48.398;11.736;2023-05-23T05:28:37;17.10;99.90
12268;DHT22;6196;48.398;11.736;2023-05-23T05:31:04;17.10;99.90
12268;DHT22;6196;48.398;11.736;2023-05-23T05:33:31;17.10;99.90
12268;DHT22;6196;48.398;11.736;2023-05-23T05:36:03;17.30;99.90
12268;DHT22;6196;48.398;11.736;2023-05-23T05:38:32;17.20;99.90
12268;DHT22;6196;48.398;11.736;2023-05-23T05:40:58;17.30;99.90
12268;DHT22;6196;48.398;11.736;2023-05-23T05:43:25;17.50;99.90
12268;DHT22;6196;48.398;11.736;2023-05-23T05:45:52;17.90;99.90
12268;DHT22;6196;48.398;11.736;2023-05-23T05:48:19;18.20;99.90
12268;DHT22;6196;48.398;11.736;2023-05-23T05:50:46;18.50;99.90
12268;DHT22;6196;48.398;11.736;2023-05-23T05:53:13;18.50;99.90
12268;DHT22;6196;48.398;11.736;2023-05-23T05:55:40;18.60;99.90
12268;DHT22;6196;48.398;11.736;2023-05-23T05:58:07;18.20;99.90
12268;DHT22;6196;48.398;11.736;2023-05-23T06:00:34;18.20;99.90
12268;DHT22;6196;48.398;11.736;2023-05-23T06:03:08;18.40;99.90
12268;DHT22;6196;48.398;11.736;2023-05-23T06:05:35;18.50;99.90
12268;DHT22;6196;48.398;11.736;2023-05-23T06:08:06;18.60;99.90
12268;DHT22;6196;48.398;11.736;2023-05-23T06:10:33;18.70;99.90
12268;DHT22;6196;48.398;11.736;2023-05-23T06:13:00;19.00;99.90
12268;DHT22;6196;48.398;11.736;2023-05-23T06:15:27;19.50;99.90
12268;DHT22;6196;48.398;11.736;2023-05-23T06:17:53;19.60;99.90
12268;DHT22;6196;48.398;11.736;2023-05-23T06:20:21;19.90;99.90
12268;DHT22;6196;48.398;11.736;2023-05-23T06:22:48;20.20;99.90
12268;DHT22;6196;48.398;11.736;2023-05-23T06:25:15;20.50;99.90
12268;DHT22;6196;48.398;11.736;2023-05-23T06:27:42;20.70;99.90
12268;DHT22;6196;48.398;11.736;2023-05-23T06:30:10;21.30;99.90
12268;DHT22;6196;48.398;11.736;2023-05-23T06:32:39;21.50;99.90
12268;DHT22;6196;48.398;11.736;2023-05-23T06:35:06;21.30;99.90
12268;DHT22;6196;48.398;11.736;2023-05-23T06:37:34;21.40;99.90
12268;DHT22;6196;48.398;11.736;2023-05-23T06:40:01;21.40;99.90
12268;DHT22;6196;48.398;11.736;2023-05-23T06:42:28;21.40;99.90
12268;DHT22;6196;48.398;11.736;2023-05-23T06:44:55;21.20;99.90
12268;DHT22;6196;48.398;11.736;2023-05-23T06:47:22;21.10;99.90
12268;DHT22;6196;48.398;11.736;2023-05-23T06:49:49;21.40;99.90
12268;DHT22;6196;48.398;11.736;2023-05-23T06:52:16;21.90;99.90
12268;DHT22;6196;48.398;11.736;2023-05-23T06:54:42;21.90;99.90
12268;DHT22;6196;48.398;11.736;2023-05-23T06:57:09;22.00;99.90
12268;DHT22;6196;48.398;11.736;2023-05-23T06:59:36;22.10;99.90
12268;DHT22;6196;48.398;11.736;2023-05-23T07:02:03;22.20;99.90
12268;DHT22;6196;48.398;11.736;2023-05-23T07:04:30;22.30;99.90
12268;DHT22;6196;48.398;11.736;2023-05-23T07:06:57;22.40;99.90
12268;DHT22;6196;48.398;11.736;2023-05-23T07:09:24;22.70;99.90
12268;DHT22;6196;48.398;11.736;2023-05-23T07:11:51;23.20;99.90
12268;DHT22;6196;48.398;11.736;2023-05-23T07:14:18;23.50;99.90
12268;DHT22;6196;48.398;11.736;2023-05-23T07:16:46;23.00;99.90
12268;DHT22;6196;48.398;11.736;2023-05-23T07:19:13;22.20;99.90
12268;DHT22;6196;48.398;11.736;2023-05-23T07:21:40;22.00;99.90
12268;DHT22;6196;48.398;11.736;2023-05-23T07:24:06;21.90;99.90
12268;DHT22;6196;48.398;11.736;2023-05-23T07:26:33;21.80;99.90
12268;DHT22;6196;48.398;11.736;2023-05-23T07:29:00;21.60;99.90
12268;DHT22;6196;48.398;11.736;2023-05-23T07:31:27;21.70;99.90
12268;DHT22;6196;48.398;11.736;2023-05-23T07:33:54;21.60;99.90
12268;DHT22;6196;48.398;11.736;2023-05-23T07:36:22;21.40;99.90
12268;DHT22;6196;48.398;11.736;2023-05-23T07:38:49;21.50;99.90
12268;DHT22;6196;48.398;11.736;2023-05-23T07:41:16;21.30;99.90
12268;DHT22;6196;48.398;11.736;2023-05-23T07:43:43;21.70;99.90
12268;DHT22;6196;48.398;11.736;2023-05-23T07:46:10;22.10;99.90
12268;DHT22;6196;48.398;11.736;2023-05-23T07:48:37;22.30;99.90
12268;DHT22;6196;48.398;11.736;2023-05-23T07:51:04;22.70;99.90
12268;DHT22;6196;48.398;11.736;2023-05-23T07:53:30;23.10;99.90
12268;DHT22;6196;48.398;11.736;2023-05-23T07:55:57;23.30;99.90
12268;DHT22;6196;48.398;11.736;2023-05-23T07:58:24;22.70;99.90
12268;DHT22;6196;48.398;11.736;2023-05-23T08:00:51;22.70;99.90
12268;DHT22;6196;48.398;11.736;2023-05-23T08:03:19;22.60;99.90
12268;DHT22;6196;48.398;11.736;2023-05-23T08:05:46;22.80;99.90
12268;DHT22;6196;48.398;11.736;2023-05-23T08:08:13;22.70;99.90
12268;DHT22;6196;48.398;11.736;2023-05-23T08:10:40;22.70;99.90
12268;DHT22;6196;48.398;11.736;2023-05-23T08:13:10;22.70;99.90
12268;DHT22;6196;48.398;11.736;2023-05-23T08:15:37;23.00;99.90
12268;DHT22;6196;48.398;11.736;2023-05-23T08:18:04;22.80;99.90
12268;DHT22;6196;48.398;11.736;2023-05-23T08:20:31;22.70;99.90
12268;DHT22;6196;48.398;11.736;2023-05-23T08:22:59;23.00;99.90
12268;DHT22;6196;48.398;11.736;2023-05-23T08:25:27;23.00;99.90
12268;DHT22;6196;48.398;11.736;2023-05-23T08:27:58;23.10;99.90
12268;DHT22;6196;48.398;11.736;2023-05-23T08:30:27;22.70;99.90
12268;DHT22;6196;48.398;11.736;2023-05-23T08:32:55;22.70;99.90
12268;DHT22;6196;48.398;11.736;2023-05-23T08:35:23;22.80;99.90
12268;DHT22;6196;48.398;11.736;2023-05-23T08:37:50;23.00;99.90
12268;DHT22;6196;48.398;11.736;2023-05-23T08:40:20;22.90;99.90
12268;DHT22;6196;48.398;11.736;2023-05-23T08:42:49;22.80;99.90
12268;DHT22;6196;48.398;11.736;2023-05-23T08:45:17;22.60;99.90
12268;DHT22;6196;48.398;11.736;2023-05-23T08:47:45;22.70;99.90
12268;DHT22;6196;48.398;11.736;2023-05-23T08:50:16;22.80;99.90
12268;DHT22;6196;48.398;11.736;2023-05-23T08:52:54;22.70;99.90
12268;DHT22;6196;48.398;11.736;2023-05-23T08:55:24;22.10;99.90
12268;DHT22;6196;48.398;11.736;2023-05-23T08:57:57;22.40;99.90
12268;DHT22;6196;48.398;11.736;2023-05-23T09:00:27;22.70;99.90
12268;DHT22;6196;48.398;11.736;2023-05-23T09:02:56;22.50;99.90
12268;DHT22;6196;48.398;11.736;2023-05-23T09:05:23;22.50;99.90
12268;DHT22;6196;48.398;11.736;2023-05-23T09:07:52;23.00;99.90
12268;DHT22;6196;48.398;11.736;2023-05-23T09:10:19;23.00;99.90
12268;DHT22;6196;48.398;11.736;2023-05-23T09:12:46;23.50;99.90
12268;DHT22;6196;48.398;11.736;2023-05-23T09:15:14;23.50;99.90
12268;DHT22;6196;48.398;11.736;2023-05-23T09:17:43;23.80;99.90
12268;DHT22;6196;48.398;11.736;2023-05-23T09:20:12;24.00;99.90
12268;DHT22;6196;48.398;11.736;2023-05-23T09:22:42;24.00;99.90
12268;DHT22;6196;48.398;11.736;2023-05-23T09:25:12;24.20;99.90
12268;DHT22;6196;48.398;11.736;2023-05-23T09:27:40;24.20;99.90
12268;DHT22;6196;48.398;11.736;2023-05-23T09:30:10;24.40;99.90
12268;DHT22;6196;48.398;11.736;2023-05-23T09:32:38;24.10;99.90
12268;DHT22;6196;48.398;11.736;2023-05-23T09:35:06;24.00;99.90
12268;DHT22;6196;48.398;11.736;2023-05-23T09:37:46;24.20;99.90
12268;DHT22;6196;48.398;11.736;2023-05-23T09:40:14;24.60;99.90
12268;DHT22;6196;48.398;11.736;2023-05-23T09:42:46;24.30;99.90
12268;DHT22;6196;48.398;11.736;2023-05-23T09:45:15;24.40;99.90
12268;DHT22;6196;48.398;11.736;2023-05-23T09:47:49;24.70;99.90
12268;DHT22;6196;48.398;11.736;2023-05-23T09:50:20;24.80;99.90
12268;DHT22;6196;48.398;11.736;2023-05-23T09:52:48;24.70;99.90
12268;DHT22;6196;48.398;11.736;2023-05-23T09:55:15;24.30;99.90
12268;DHT22;6196;48.398;11.736;2023-05-23T09:57:43;24.00;99.90
12268;DHT22;6196;48.398;11.736;2023-05-23T10:00:11;23.80;99.90
12268;DHT22;6196;48.398;11.736;2023-05-23T10:05:35;23.50;99.90
12268;DHT22;6196;48.398;11.736;2023-05-23T10:08:09;23.20;99.90
12268;DHT22;6196;48.398;11.736;2023-05-23T10:13:27;23.00;99.90
12268;DHT22;6196;48.398;11.736;2023-05-23T10:18:50;24.80;99.90
12268;DHT22;6196;48.398;11.736;2023-05-23T10:21:28;25.30;99.90
12268;DHT22;6196;48.398;11.736;2023-05-23T10:23:59;25.70;99.90
12268;DHT22;6196;48.398;11.736;2023-05-23T10:26:26;26.00;99.90
12268;DHT22;6196;48.398;11.736;2023-05-23T10:28:54;26.20;99.90
12268;DHT22;6196;48.398;11.736;2023-05-23T10:31:23;26.10;99.90
12268;DHT22;6196;48.398;11.736;2023-05-23T10:33:57;26.20;99.90
12268;DHT22;6196;48.398;11.736;2023-05-23T10:36:42;26.30;99.90
12268;DHT22;6196;48.398;11.736;2023-05-23T10:39:27;25.60;99.90
12268;DHT22;6196;48.398;11.736;2023-05-23T10:45:15;25.30;99.90
12268;DHT22;6196;48.398;11.736;2023-05-23T10:47:43;25.60;99.90
12268;DHT22;6196;48.398;11.736;2023-05-23T10:50:14;25.20;99.90
12268;DHT22;6196;48.398;11.736;2023-05-23T10:52:42;25.50;99.90
12268;DHT22;6196;48.398;11.736;2023-05-23T10:55:14;25.00;99.90
12268;DHT22;6196;48.398;11.736;2023-05-23T10:57:43;25.00;99.90
12268;DHT22;6196;48.398;11.736;2023-05-23T11:00:13;24.60;99.90
12268;DHT22;6196;48.398;11.736;2023-05-23T11:02:55;24.50;99.90
12268;DHT22;6196;48.398;11.736;2023-05-23T11:05:28;24.40;99.90
12268;DHT22;6196;48.398;11.736;2023-05-23T11:08:13;24.70;99.90
12268;DHT22;6196;48.398;11.736;2023-05-23T11:11:00;25.00;99.90
12268;DHT22;6196;48.398;11.736;2023-05-23T11:13:54;24.90;99.90
12268;DHT22;6196;48.398;11.736;2023-05-23T11:16:39;25.00;99.90
12268;DHT22;6196;48.398;11.736;2023-05-23T11:19:20;24.70;99.90
12268;DHT22;6196;48.398;11.736;2023-05-23T11:22:01;24.60;99.90
12268;DHT22;6196;48.398;11.736;2023-05-23T11:24:51;24.10;99.90
12268;DHT22;6196;48.398;11.736;2023-05-23T11:27:36;24.40;99.90
12268;DHT22;6196;48.398;11.736;2023-05-23T11:30:15;24.70;99.90
12268;DHT22;6196;48.398;11.736;2023-05-23T11:32:50;25.50;99.90
12268;DHT22;6196;48.398;11.736;2023-05-23T11:35:20;26.10;99.90
12268;DHT22;6196;48.398;11.736;2023-05-23T11:37:47;26.00;99.90
12268;DHT22;6196;48.398;11.736;2023-05-23T11:40:25;26.30;99.90
12268;DHT22;6196;48.398;11.736;2023-05-23T11:42:53;26.50;99.90
12268;DHT22;6196;48.398;11.736;2023-05-23T11:45:24;26.60;99.90
12268;DHT22;6196;48.398;11.736;2023-05-23T11:47:52;26.70;99.90
12268;DHT22;6196;48.398;11.736;2023-05-23T11:50:20;26.70;99.90
12268;DHT22;6196;48.398;11.736;2023-05-23T11:52:47;26.90;99.90
12268;DHT22;6196;48.398;11.736;2023-05-23T11:55:21;27.00;99.90
12268;DHT22;6196;48.398;11.736;2023-05-23T11:57:49;26.90;99.90
12268;DHT22;6196;48.398;11.736;2023-05-23T12:00:17;27.20;99.90
12268;DHT22;6196;48.398;11.736;2023-05-23T12:02:46;26.70;99.90
12268;DHT22;6196;48.398;11.736;2023-05-23T12:05:14;26.40;99.90
12268;DHT22;6196;48.398;11.736;2023-05-23T12:07:43;26.00;99.90
12268;DHT22;6196;48.398;11.736;2023-05-23T12:10:14;25.40;99.90
12268;DHT22;6196;48.398;11.736;2023-05-23T12:12:50;25.10;99.90
12268;DHT22;6196;48.398;11.736;2023-05-23T12:15:17;24.60;99.90
12268;DHT22;6196;48.398;11.736;2023-05-23T12:17:44;24.80;99.90
12268;DHT22;6196;48.398;11.736;2023-05-23T12:20:12;24.70;99.90
12268;DHT22;6196;48.398;11.736;2023-05-23T12:22:40;24.70;99.90
12268;DHT22;6196;48.398;11.736;2023-05-23T12:25:08;24.90;99.90
12268;DHT22;6196;48.398;11.736;2023-05-23T12:27:40;24.90;99.90
12268;DHT22;6196;48.398;11.736;2023-05-23T12:30:13;24.60;99.90
12268;DHT22;6196;48.398;11.736;2023-05-23T12:32:43;24.30;99.90
12268;DHT22;6196;48.398;11.736;2023-05-23T12:35:12;24.40;99.90
12268;DHT22;6196;48.398;11.736;2023-05-23T12:37:44;25.00;99.90
12268;DHT22;6196;48.398;11.736;2023-05-23T12:40:15;25.60;99.90
12268;DHT22;6196;48.398;11.736;2023-05-23T12:42:53;25.80;99.90
12268;DHT22;6196;48.398;11.736;2023-05-23T12:45:23;25.50;99.90
12268;DHT22;6196;48.398;11.736;2023-05-23T12:48:00;25.60;99.90
12268;DHT22;6196;48.398;11.736;2023-05-23T12:50:28;25.40;99.90
12268;DHT22;6196;48.398;11.736;2023-05-23T12:52:55;25.30;99.90
12268;DHT22;6196;48.398;11.736;2023-05-23T12:55:22;25.90;99.90
12268;DHT22;6196;48.398;11.736;2023-05-23T12:57:49;26.00;99.90
12268;DHT22;6196;48.398;11.736;2023-05-23T13:00:17;26.30;99.90
12268;DHT22;6196;48.398;11.736;2023-05-23T13:02:45;26.40;99.90
12268;DHT22;6196;48.398;11.736;2023-05-23T13:05:12;26.60;99.90
12268;DHT22;6196;48.398;11.736;2023-05-23T13:07:39;26.30;99.90
12268;DHT22;6196;48.398;11.736;2023-05-23T13:10:07;26.10;99.90
12268;DHT22;6196;48.398;11.736;2023-05-23T13:12:34;25.90;99.90
12268;DHT22;6196;48.398;11.736;2023-05-23T13:15:01;26.00;99.90
12268;DHT22;6196;48.398;11.736;2023-05-23T13:17:28;25.80;99.90
12268;DHT22;6196;48.398;11.736;2023-05-23T13:19:55;25.50;99.90
12268;DHT22;6196;48.398;11.736;2023-05-23T13:22:22;25.30;99.90
12268;DHT22;6196;48.398;11.736;2023-05-23T13:24:49;25.10;99.90
12268;DHT22;6196;48.398;11.736;2023-05-23T13:27:17;25.40;99.90
12268;DHT22;6196;48.398;11.736;2023-05-23T13:29:44;25.70;99.90
12268;DHT22;6196;48.398;11.736;2023-05-23T13:32:11;25.60;99.90
12268;DHT22;6196;48.398;11.736;2023-05-23T13:34:37;26.10;99.90
12268;DHT22;6196;48.398;11.736;2023-05-23T13:37:04;26.00;99.90
12268;DHT22;6196;48.398;11.736;2023-05-23T13:39:32;26.20;99.90
12268;DHT22;6196;48.398;11.736;2023-05-23T13:41:58;26.10;99.90
12268;DHT22;6196;48.398;11.736;2023-05-23T13:44:25;26.10;99.90
12268;DHT22;6196;48.398;11.736;2023-05-23T13:46:54;25.90;99.90
12268;DHT22;6196;48.398;11.736;2023-05-23T13:49:21;25.70;99.90
12268;DHT22;6196;48.398;11.736;2023-05-23T13:51:48;25.70;99.90
12268;DHT22;6196;48.398;11.736;2023-05-23T13:54:15;25.70;99.90
12268;DHT22;6196;48.398;11.736;2023-05-23T13:56:42;26.10;99.90
12268;DHT22;6196;48.398;11.736;2023-05-23T13:59:09;26.40;99.90
12268;DHT22;6196;48.398;11.736;2023-05-23T14:01:36;26.60;99.90
12268;DHT22;6196;48.398;11.736;2023-05-23T14:04:03;27.00;99.90
12268;DHT22;6196;48.398;11.736;2023-05-23T14:06:32;27.20;99.90
12268;DHT22;6196;48.398;11.736;2023-05-23T14:08:59;27.50;99.90
12268;DHT22;6196;48.398;11.736;2023-05-23T14:11:26;27.80;99.90
12268;DHT22;6196;48.398;11.736;2023-05-23T14:13:53;28.00;99.90
12268;DHT22;6196;48.398;11.736;2023-05-23T14:16:20;27.20;99.90
12268;DHT22;6196;48.398;11.736;2023-05-23T14:18:47;26.90;99.90
12268;DHT22;6196;48.398;11.736;2023-05-23T14:21:14;26.70;99.90
12268;DHT22;6196;48.398;11.736;2023-05-23T14:23:41;27.00;99.90
12268;DHT22;6196;48.398;11.736;2023-05-23T14:26:08;27.10;99.90
12268;DHT22;6196;48.398;11.736;2023-05-23T14:28:35;27.30;99.90
12268;DHT22;6196;48.398;11.736;2023-05-23T14:31:02;27.70;99.90
12268;DHT22;6196;48.398;11.736;2023-05-23T14:33:29;27.30;99.90
12268;DHT22;6196;48.398;11.736;2023-05-23T14:35:56;27.00;99.90
12268;DHT22;6196;48.398;11.736;2023-05-23T14:38:23;26.90;99.90
12268;DHT22;6196;48.398;11.736;2023-05-23T14:40:50;27.10;99.90
12268;DHT22;6196;48.398;11.736;2023-05-23T14:43:17;26.70;99.90
12268;DHT22;6196;48.398;11.736;2023-05-23T14:45:44;26.50;99.90
12268;DHT22;6196;48.398;11.736;2023-05-23T14:48:11;26.70;99.90
12268;DHT22;6196;48.398;11.736;2023-05-23T14:50:38;27.00;99.90
12268;DHT22;6196;48.398;11.736;2023-05-23T14:53:06;27.30;99.90
12268;DHT22;6196;48.398;11.736;2023-05-23T14:55:33;27.50;99.90
12268;DHT22;6196;48.398;11.736;2023-05-23T14:58:00;27.50;99.90
12268;DHT22;6196;48.398;11.736;2023-05-23T15:00:28;27.80;99.90
12268;DHT22;6196;48.398;11.736;2023-05-23T15:02:55;27.80;99.90
12268;DHT22;6196;48.398;11.736;2023-05-23T15:05:22;27.30;99.90
12268;DHT22;6196;48.398;11.736;2023-05-23T15:07:50;27.30;99.90
12268;DHT22;6196;48.398;11.736;2023-05-23T15:10:17;26.60;99.90
12268;DHT22;6196;48.398;11.736;2023-05-23T15:12:44;26.80;99.90
12268;DHT22;6196;48.398;11.736;2023-05-23T15:15:11;26.60;99.90
12268;DHT22;6196;48.398;11.736;2023-05-23T15:17:38;26.50;99.90
12268;DHT22;6196;48.398;11.736;2023-05-23T15:20:06;26.20;99.90
12268;DHT22;6196;48.398;11.736;2023-05-23T15:22:36;26.20;99.90
12268;DHT22;6196;48.398;11.736;2023-05-23T15:25:06;25.70;99.90
12268;DHT22;6196;48.398;11.736;2023-05-23T15:27:34;25.90;99.90
12268;DHT22;6196;48.398;11.736;2023-05-23T15:30:02;26.40;99.90
12268;DHT22;6196;48.398;11.736;2023-05-23T15:32:29;26.50;99.90
12268;DHT22;6196;48.398;11.736;2023-05-23T15:34:56;26.10;99.90
12268;DHT22;6196;48.398;11.736;2023-05-23T15:37:23;26.40;99.90
12268;DHT22;6196;48.398;11.736;2023-05-23T15:39:50;26.10;99.90
12268;DHT22;6196;48.398;11.736;2023-05-23T15:42:17;25.70;99.90
12268;DHT22;6196;48.398;11.736;2023-05-23T15:44:44;25.50;99.90
12268;DHT22;6196;48.398;11.736;2023-05-23T15:47:11;24.70;99.90
12268;DHT22;6196;48.398;11.736;2023-05-23T15:49:38;24.70;99.90
12268;DHT22;6196;48.398;11.736;2023-05-23T15:52:04;24.40;99.90
12268;DHT22;6196;48.398;11.736;2023-05-23T15:54:31;24.10;99.90
12268;DHT22;6196;48.398;11.736;2023-05-23T15:56:58;23.60;99.90
12268;DHT22;6196;48.398;11.736;2023-05-23T15:59:25;23.50;99.90